Time;durP1;ratioP1;P1;durP2;ratioP2;P2;SDS_P1;SDS_P2;PMS_P1;PMS_P2;Temp;Humidity;BMP_temperature;BMP_pressure;BME280_temperature;BME280_humidity;BME280_pressure;Samples;Min_cycle;Max_cycle;Signal;HPM_P1;HPM_P2
2022/08/23 00:01:46;;;;;;;18.20;13.63;;;;;;;21.51;89.59;96467.72;5065622;28;20261;-77
2022/08/23 00:05:08;;;;;;;18.13;14.07;;;;;;;21.58;89.20;96479.31;5063098;28;20203;-76
2022/08/23 00:08:29;;;;;;;18.00;12.80;;;;;;;21.81;89.04;96475.22;5066269;28;20195;-76
2022/08/23 00:11:28;;;;;;;17.17;13.73;;;;;;;21.96;87.41;96471.09;5068052;28;21389;-76
2022/08/23 00:15:02;;;;;;;18.93;13.47;;;;;;;21.73;88.18;96469.88;5068828;28;20683;-76
2022/08/23 00:18:23;;;;;;;20.27;13.53;;;;;;;21.70;88.85;96470.22;5069364;28;20230;-76
2022/08/23 00:21:43;;;;;;;15.57;12.17;;;;;;;21.81;88.49;96464.69;5068957;28;20207;-76
2022/08/23 00:25:05;;;;;;;19.27;13.50;;;;;;;21.88;88.27;96455.22;5067873;28;20692;-76
2022/08/23 00:28:25;;;;;;;17.27;13.77;;;;;;;22.12;87.09;96467.72;5033418;28;20197;-76
2022/08/23 00:31:47;;;;;;;18.37;12.87;;;;;;;22.11;86.78;96474.84;5051031;28;20194;-75
2022/08/23 00:35:08;;;;;;;16.33;12.50;;;;;;;22.23;86.22;96478.03;5052926;28;20232;-77
2022/08/23 00:38:29;;;;;;;18.40;12.73;;;;;;;22.22;86.84;96487.75;5050546;28;20241;-77
2022/08/23 00:41:51;;;;;;;17.70;13.13;;;;;;;22.16;86.43;96493.66;5067269;28;20196;-76
2022/08/23 00:49:06;;;;;;;20.43;14.77;;;;;;;21.78;88.06;96467.63;5033480;28;20214;-75
2022/08/23 00:52:36;;;;;;;17.67;13.60;;;;;;;21.82;88.77;96463.75;5068086;28;20670;-76
2022/08/23 00:55:58;;;;;;;22.13;14.60;;;;;;;21.67;88.84;96463.44;5049712;28;20222;-76
2022/08/23 00:59:19;;;;;;;18.73;13.83;;;;;;;21.58;89.52;96472.22;5034835;28;20199;-76
2022/08/23 01:02:40;;;;;;;20.73;14.77;;;;;;;21.49;89.80;96467.03;5032671;28;20195;-76
2022/08/23 01:05:59;;;;;;;17.10;13.80;;;;;;;21.64;88.80;96482.16;5068565;28;20896;-76
2022/08/23 01:09:23;;;;;;;21.77;14.53;;;;;;;21.31;89.76;96476.75;5050503;28;20206;-76
2022/08/23 01:12:30;;;;;;;23.17;15.87;;;;;;;21.23;90.41;96480.13;5049206;28;20289;-76
2022/08/23 01:15:55;;;;;;;22.20;15.47;;;;;;;21.17;91.23;96482.50;5066875;28;20221;-76
2022/08/23 01:19:18;;;;;;;19.70;14.00;;;;;;;21.36;90.03;96472.69;5052323;28;20206;-75
2022/08/23 01:22:25;;;;;;;19.80;13.90;;;;;;;21.49;89.30;96477.59;5068021;28;20199;-76
2022/08/23 01:25:49;;;;;;;15.53;13.20;;;;;;;21.57;88.33;96478.50;5049884;28;20197;-77
2022/08/23 01:29:10;;;;;;;22.17;13.63;;;;;;;21.53;87.60;96487.69;5034043;28;20204;-75
2022/08/23 01:32:31;;;;;;;18.63;13.93;;;;;;;21.62;86.97;96493.84;5049051;28;20594;-75
2022/08/23 01:35:32;;;;;;;14.83;12.67;;;;;;;21.61;86.31;96500.09;5066241;28;20695;-77
2022/08/23 01:38:53;;;;;;;16.43;11.67;;;;;;;21.57;86.82;96493.47;5017782;28;20228;-76
2022/08/23 01:42:15;;;;;;;13.87;11.57;;;;;;;21.63;86.16;96496.34;5047880;28;20200;-77
2022/08/23 01:45:39;;;;;;;14.60;11.47;;;;;;;21.69;85.82;96505.44;5050093;28;20220;-78
2022/08/23 01:49:02;;;;;;;14.43;12.03;;;;;;;21.62;86.18;96496.47;5067991;28;20678;-77
2022/08/23 01:52:23;;;;;;;13.07;11.67;;;;;;;21.39;86.65;96472.38;5051890;28;20194;-77
2022/08/23 01:55:46;;;;;;;16.30;12.57;;;;;;;21.47;86.46;96503.25;5034590;28;20202;-77
2022/08/23 01:59:09;;;;;;;17.23;13.47;;;;;;;21.47;86.18;96490.09;5048882;28;20763;-77
2022/08/23 02:02:32;;;;;;;15.10;12.83;;;;;;;21.39;85.86;96490.00;5049507;28;20240;-77
2022/08/23 02:05:54;;;;;;;18.17;12.50;;;;;;;21.35;86.82;96480.75;5049295;28;20197;-77
2022/08/23 02:09:15;;;;;;;19.13;13.67;;;;;;;21.19;87.54;96491.94;5066828;28;20202;-77
2022/08/23 02:12:39;;;;;;;17.30;12.50;;;;;;;21.24;87.55;96494.13;5048038;28;20255;-78
2022/08/23 02:16:22;;;;;;;15.67;13.53;;;;;;;21.26;87.30;96498.28;5051647;28;20739;-78
2022/08/23 02:19:46;;;;;;;16.27;12.57;;;;;;;21.25;86.95;96483.44;5068314;28;20250;-77
2022/08/23 02:23:08;;;;;;;19.70;13.73;;;;;;;21.04;87.55;96483.69;5049711;28;20209;-75
2022/08/23 02:26:30;;;;;;;21.93;13.37;;;;;;;21.04;87.86;96488.97;5049373;28;20198;-77
2022/08/23 02:29:51;;;;;;;15.87;12.60;;;;;;;21.23;87.37;96484.56;5047829;28;20193;-75
2022/08/23 02:33:12;;;;;;;16.00;12.97;;;;;;;21.34;86.65;96469.38;5033228;28;20198;-76
2022/08/23 02:36:33;;;;;;;17.80;12.90;;;;;;;21.44;85.29;96459.59;5049137;28;20663;-77
2022/08/23 02:39:54;;;;;;;18.70;12.50;;;;;;;21.57;85.47;96472.38;5066673;28;20742;-77
2022/08/23 02:43:16;;;;;;;17.80;12.20;;;;;;;21.62;85.03;96486.75;5048393;28;20629;-79
2022/08/23 02:46:37;;;;;;;17.30;12.40;;;;;;;21.75;85.12;96492.50;5065860;28;20669;-76
2022/08/23 02:49:57;;;;;;;17.43;12.20;;;;;;;21.70;84.87;96488.66;5034396;28;20260;-76
2022/08/23 02:53:18;;;;;;;16.60;11.60;;;;;;;21.74;84.74;96500.56;5047977;28;20202;-77
2022/08/23 02:56:43;;;;;;;15.33;12.27;;;;;;;21.69;85.53;96510.72;5049447;28;20200;-76
2022/08/23 03:00:04;;;;;;;20.47;13.60;;;;;;;21.67;84.91;96520.56;5033168;28;20300;-76
2022/08/23 03:03:24;;;;;;;15.57;11.73;;;;;;;21.54;85.55;96515.69;5048100;28;20205;-76
2022/08/23 03:06:47;;;;;;;19.27;12.87;;;;;;;21.59;85.20;96520.50;5049268;28;20212;-75
2022/08/23 03:10:10;;;;;;;15.37;12.00;;;;;;;21.76;84.72;96522.31;5048551;28;20218;-76
2022/08/23 03:13:36;;;;;;;14.23;12.70;;;;;;;21.70;84.45;96515.00;5047436;28;20290;-75
2022/08/23 03:16:59;;;;;;;18.43;13.70;;;;;;;21.38;85.55;96528.69;5064276;28;20228;-76
2022/08/23 03:20:21;;;;;;;20.23;13.63;;;;;;;20.93;87.94;96528.66;5047768;28;20643;-75
2022/08/23 03:23:42;;;;;;;19.67;14.07;;;;;;;20.71;89.18;96529.00;5048326;28;20201;-75
2022/08/23 03:27:05;;;;;;;20.03;13.50;;;;;;;20.55;89.97;96538.47;5053639;28;20217;-74
2022/08/23 03:30:28;;;;;;;21.53;15.43;;;;;;;20.50;90.55;96543.34;5063898;28;20201;-75
2022/08/23 03:33:50;;;;;;;21.03;15.37;;;;;;;20.54;90.31;96548.19;5046857;28;20228;-74
2022/08/23 03:37:11;;;;;;;20.97;14.43;;;;;;;20.44;90.63;96552.66;5048104;28;20371;-76
2022/08/23 03:40:32;;;;;;;17.20;14.47;;;;;;;20.40;91.00;96551.28;5064817;28;20233;-75
2022/08/23 03:43:55;;;;;;;18.10;15.10;;;;;;;20.42;91.05;96559.84;5088183;28;20272;-75
2022/08/23 03:47:20;;;;;;;22.73;16.20;;;;;;;20.53;90.71;96561.47;5071238;28;20203;-76
2022/08/23 03:50:41;;;;;;;18.63;14.33;;;;;;;20.51;90.52;96563.41;5073448;28;20262;-75
2022/08/23 03:54:03;;;;;;;20.87;15.57;;;;;;;20.52;90.47;96554.56;5072252;28;20690;-75
2022/08/23 03:57:30;;;;;;;23.17;15.40;;;;;;;20.46;90.84;96555.13;5072521;28;20222;-76
2022/08/23 04:00:54;;;;;;;20.30;15.27;;;;;;;20.62;90.20;96550.94;5071245;28;20253;-76
2022/08/23 04:04:15;;;;;;;18.63;14.83;;;;;;;20.81;88.90;96555.31;5070201;28;20189;-75
2022/08/23 04:07:54;;;;;;;17.13;13.33;;;;;;;21.05;87.31;96551.19;5076464;28;20699;-75
2022/08/23 04:11:18;;;;;;;18.97;15.23;;;;;;;21.29;86.37;96550.66;5071134;28;20212;-75
2022/08/23 04:14:44;;;;;;;17.20;12.90;;;;;;;21.45;85.02;96548.19;5072180;28;20337;-76
2022/08/23 04:18:09;;;;;;;18.80;13.13;;;;;;;21.73;83.84;96527.88;5070504;28;20243;-75
2022/08/23 04:21:33;;;;;;;22.03;13.97;;;;;;;21.96;82.58;96523.84;5056766;28;20204;-75
2022/08/23 04:24:54;;;;;;;17.33;13.60;;;;;;;22.07;82.53;96531.50;5071654;28;20198;-77
2022/08/23 04:28:17;;;;;;;18.30;12.80;;;;;;;22.30;81.48;96534.47;5054276;28;20201;-76
2022/08/23 04:31:38;;;;;;;18.27;12.67;;;;;;;22.37;80.74;96501.22;5089610;28;20190;-75
2022/08/23 04:34:59;;;;;;;18.93;13.83;;;;;;;22.80;79.79;96538.13;5066573;28;20231;-75
2022/08/23 04:38:20;;;;;;;19.80;15.10;;;;;;;22.86;79.28;96539.28;5066287;28;20318;-76
2022/08/23 04:45:26;;;;;;;18.93;13.60;;;;;;;22.99;78.30;96547.63;5051387;28;20266;-76
2022/08/23 04:48:55;;;;;;;18.00;13.57;;;;;;;23.13;78.40;96547.00;5070792;28;20715;-75
2022/08/23 04:52:16;;;;;;;17.23;13.30;;;;;;;22.97;78.37;96542.50;5066702;28;20194;-75
2022/08/23 04:55:37;;;;;;;24.03;13.90;;;;;;;23.21;78.10;96533.81;5065848;28;20242;-76
2022/08/23 04:58:59;;;;;;;25.33;15.00;;;;;;;23.09;78.10;96535.09;5069705;28;20230;-76
2022/08/23 05:02:26;;;;;;;26.53;14.30;;;;;;;23.40;78.15;96523.03;5068540;28;20203;-76
2022/08/23 05:05:48;;;;;;;22.00;13.87;;;;;;;23.81;75.94;96532.69;5069008;28;20285;-77
2022/08/23 05:09:15;;;;;;;18.23;12.30;;;;;;;23.54;76.55;96540.88;5066771;28;20258;-77
2022/08/23 05:12:36;;;;;;;18.97;12.73;;;;;;;23.69;76.10;96539.28;5051997;28;20217;-77
2022/08/23 05:16:00;;;;;;;19.27;13.37;;;;;;;24.01;75.22;96555.16;5067862;28;20235;-77
2022/08/23 05:19:29;;;;;;;19.43;11.90;;;;;;;24.30;74.55;96554.72;5068743;28;20270;-76
2022/08/23 05:22:53;;;;;;;25.40;12.50;;;;;;;24.48;73.73;96552.72;5068465;28;20195;-77
2022/08/23 05:26:22;;;;;;;17.90;10.83;;;;;;;24.73;73.22;96558.81;5066615;28;20214;-76
2022/08/23 05:29:46;;;;;;;12.20;9.80;;;;;;;24.77;71.89;96554.84;5066493;28;20203;-76
2022/08/23 05:33:08;;;;;;;15.57;9.57;;;;;;;25.07;70.74;96555.91;5067454;28;20196;-76
2022/08/23 05:36:35;;;;;;;15.43;9.77;;;;;;;25.24;70.46;96557.50;5067447;28;20332;-76
2022/08/23 05:39:58;;;;;;;28.00;11.47;;;;;;;25.23;70.30;96561.16;5066362;28;20227;-77
2022/08/23 05:43:34;;;;;;;13.00;9.07;;;;;;;24.96;71.13;96557.94;5067566;28;20202;-77
2022/08/23 05:46:56;;;;;;;15.77;10.97;;;;;;;24.93;70.53;96552.16;5067759;28;20226;-77
2022/08/23 05:50:27;;;;;;;11.60;9.37;;;;;;;25.12;70.27;96564.19;5067290;28;20609;-75
2022/08/23 05:53:49;;;;;;;12.87;9.07;;;;;;;24.74;72.17;96555.19;5050053;28;20200;-75
2022/08/23 05:57:10;;;;;;;17.57;11.80;;;;;;;24.28;75.73;96556.69;5065128;28;20258;-76
2022/08/23 06:00:31;;;;;;;15.57;10.57;;;;;;;23.82;77.03;96562.59;5065271;28;20217;-76
2022/08/23 06:03:52;;;;;;;19.67;12.40;;;;;;;23.76;77.56;96558.78;5066264;28;20201;-77
2022/08/23 06:07:15;;;;;;;16.03;11.80;;;;;;;23.67;78.42;96559.78;5049444;28;20198;-77
2022/08/23 06:10:38;;;;;;;16.13;11.67;;;;;;;23.53;78.29;96563.03;5065855;28;20202;-77
2022/08/23 06:14:04;;;;;;;13.47;11.50;;;;;;;23.60;79.00;96560.56;5065850;28;20190;-75
2022/08/23 06:17:25;;;;;;;13.17;11.40;;;;;;;23.89;78.25;96561.78;5065297;28;20234;-77
2022/08/23 06:20:49;;;;;;;13.93;10.97;;;;;;;24.14;77.33;96560.84;5067583;28;20292;-76
2022/08/23 06:24:20;;;;;;;16.70;12.13;;;;;;;24.60;75.38;96569.09;5066854;28;20202;-75
2022/08/23 06:28:03;;;;;;;15.70;11.07;;;;;;;25.09;72.84;96567.16;5067571;28;20238;-75
2022/08/23 06:35:07;;;;;;;17.83;11.23;;;;;;;26.03;67.77;96570.53;5064946;28;20224;-76
2022/08/23 06:38:44;;;;;;;20.67;10.80;;;;;;;26.30;66.19;96575.31;5049179;28;20625;-76
2022/08/23 06:42:05;;;;;;;14.60;9.90;;;;;;;26.54;65.29;96575.91;5067667;28;20196;-76
2022/08/23 06:45:28;;;;;;;10.20;8.80;;;;;;;26.84;64.31;96587.47;5066140;28;20707;-78
2022/08/23 06:48:48;;;;;;;13.13;9.23;;;;;;;27.12;63.08;96588.47;5063541;28;20677;-75
2022/08/23 06:52:11;;;;;;;20.47;9.47;;;;;;;27.37;61.59;96584.56;5066179;28;20185;-78
2022/08/23 06:55:39;;;;;;;18.80;9.00;;;;;;;27.37;61.25;96594.38;5067103;28;20209;-76
2022/08/23 06:59:17;;;;;;;13.00;10.43;;;;;;;26.87;62.38;96597.75;5049311;28;20201;-77
2022/08/23 07:03:07;;;;;;;16.93;10.77;;;;;;;26.96;62.94;96604.63;5045840;28;20201;-75
2022/08/23 07:06:46;;;;;;;28.27;11.50;;;;;;;26.88;63.70;96612.66;5065616;28;20189;-75
2022/08/23 07:10:08;;;;;;;11.63;9.77;;;;;;;26.77;64.06;96620.28;5064577;28;20236;-77
2022/08/23 07:13:31;;;;;;;13.90;10.53;;;;;;;26.73;64.51;96617.13;5065317;28;20216;-75
2022/08/23 07:16:52;;;;;;;17.03;11.07;;;;;;;26.86;63.43;96587.28;5067052;28;20960;-79
2022/08/23 07:20:14;;;;;;;15.23;9.87;;;;;;;27.32;63.28;96626.84;5066908;28;20212;-80
2022/08/23 07:23:38;;;;;;;15.33;10.40;;;;;;;27.48;63.15;96620.50;5065708;28;20702;-78
2022/08/23 07:27:00;;;;;;;13.67;11.00;;;;;;;27.62;62.55;96611.69;5065869;28;20207;-76
2022/08/23 07:30:30;;;;;;;21.67;10.83;;;;;;;27.67;62.01;96625.28;5066812;28;20197;-78
2022/08/23 07:33:53;;;;;;;17.43;11.97;;;;;;;26.70;63.34;96624.59;5069204;28;20205;-77
2022/08/23 07:37:19;;;;;;;10.93;9.63;;;;;;;26.80;62.38;96628.69;5070162;28;20232;-75
2022/08/23 07:40:43;;;;;;;13.10;10.27;;;;;;;26.93;62.55;96596.19;5056714;28;20196;-77
2022/08/23 07:44:05;;;;;;;12.50;10.20;;;;;;;27.30;62.22;96628.03;5071162;28;20254;-76
2022/08/23 07:47:33;;;;;;;10.60;8.67;;;;;;;26.69;62.33;96645.03;5084958;28;20196;-75
2022/08/23 07:50:57;;;;;;;10.80;8.40;;;;;;;26.63;63.56;96643.94;5087978;28;20254;-76
2022/08/23 07:54:18;;;;;;;11.17;9.97;;;;;;;26.32;63.70;96613.97;5067482;28;20238;-78
2022/08/23 07:57:52;;;;;;;12.10;8.50;;;;;;;26.22;64.81;96660.34;5083763;28;20243;-76
2022/08/23 08:01:36;;;;;;;9.93;8.90;;;;;;;26.39;64.49;96664.53;5105630;28;20188;-77
2022/08/23 08:04:57;;;;;;;16.50;12.53;;;;;;;26.49;65.02;96657.16;5081524;28;20251;-76
2022/08/23 08:08:21;;;;;;;18.13;11.00;;;;;;;26.15;65.91;96654.91;5079968;28;20223;-77
2022/08/23 08:11:46;;;;;;;16.33;13.53;;;;;;;26.17;66.39;96660.06;5079099;28;20212;-77
2022/08/23 08:15:11;;;;;;;13.67;11.23;;;;;;;26.43;65.87;96656.03;5071496;28;20293;-79
2022/08/23 08:18:41;;;;;;;11.83;8.83;;;;;;;26.86;64.80;96661.69;5073896;28;20231;-79
2022/08/23 08:22:23;;;;;;;13.90;10.03;;;;;;;27.09;64.26;96673.09;5090772;28;20209;-76
2022/08/23 08:25:45;;;;;;;15.93;10.83;;;;;;;27.00;64.49;96669.69;5087160;28;20295;-76
2022/08/23 08:29:10;;;;;;;12.97;8.97;;;;;;;27.01;64.38;96667.88;5067809;28;20193;-76
2022/08/23 08:32:31;;;;;;;11.70;10.23;;;;;;;26.89;65.74;96670.16;5071555;28;20224;-76
2022/08/23 08:35:54;;;;;;;11.90;9.47;;;;;;;26.86;65.49;96667.00;5090960;28;20751;-77
2022/08/23 08:39:18;;;;;;;12.50;10.03;;;;;;;26.62;65.78;96668.03;5072797;28;20224;-77
2022/08/23 08:42:21;;;;;;;13.30;9.77;;;;;;;26.85;65.84;96666.22;5073317;28;20238;-78
2022/08/23 08:45:49;;;;;;;14.37;11.80;;;;;;;27.20;64.31;96649.56;5056495;28;20203;-76
2022/08/23 08:49:13;;;;;;;14.50;10.93;;;;;;;27.37;63.78;96652.88;5071316;28;20196;-77
2022/08/23 08:52:47;;;;;;;15.17;10.83;;;;;;;27.42;63.13;96639.88;5072516;28;20205;-79
2022/08/23 08:56:37;;;;;;;14.63;11.57;;;;;;;27.62;63.19;96642.78;5090990;28;20209;-76
2022/08/23 09:00:14;;;;;;;14.33;11.83;;;;;;;28.17;61.24;96632.44;5073514;28;20219;-78
2022/08/23 09:03:37;;;;;;;16.77;12.50;;;;;;;28.15;60.96;96637.94;5068916;28;20204;-79
2022/08/23 09:07:11;;;;;;;15.73;12.63;;;;;;;27.91;60.99;96632.94;5070421;28;20197;-78
2022/08/23 09:10:12;;;;;;;15.03;12.80;;;;;;;28.06;60.05;96640.91;5039159;28;20192;-76
2022/08/23 09:13:30;;;;;;;22.70;16.27;;;;;;;28.48;58.93;96614.28;5072612;28;20343;-77
2022/08/23 09:16:55;;;;;;;18.90;13.93;;;;;;;28.60;59.20;96639.44;5089948;28;20196;-76
2022/08/23 09:20:19;;;;;;;17.63;13.63;;;;;;;28.71;59.17;96640.75;5090739;28;20275;-77
2022/08/23 09:23:39;;;;;;;17.93;14.97;;;;;;;28.89;58.86;96643.78;5071096;28;20215;-77
2022/08/23 09:27:14;;;;;;;15.03;12.93;;;;;;;27.75;60.12;96634.97;5042731;28;20268;-78
2022/08/23 09:30:41;;;;;;;19.47;14.47;;;;;;;28.28;59.35;96642.56;5090487;28;20200;-79
2022/08/23 09:34:07;;;;;;;17.40;12.13;;;;;;;27.81;58.88;96637.72;5067744;28;20232;-77
2022/08/23 09:37:51;;;;;;;15.63;11.23;;;;;;;27.60;58.91;96656.28;5067406;28;20228;-76
2022/08/23 09:41:13;;;;;;;16.50;12.17;;;;;;;27.97;59.34;96642.03;5051869;28;20567;-78
2022/08/23 09:44:52;;;;;;;22.03;13.13;;;;;;;28.56;57.90;96642.69;5067432;28;20201;-76
2022/08/23 09:48:18;;;;;;;16.60;12.17;;;;;;;28.72;56.55;96643.25;5068733;28;20205;-76
2022/08/23 09:51:25;;;;;;;18.63;12.37;;;;;;;29.22;55.70;96638.72;5067188;28;20197;-76
2022/08/23 09:54:43;;;;;;;15.47;11.07;;;;;;;29.70;54.51;96637.75;5066370;28;20679;-75
2022/08/23 09:58:07;;;;;;;16.73;12.43;;;;;;;29.86;52.54;96637.47;5066184;28;20247;-76
2022/08/23 10:01:29;;;;;;;15.70;10.83;;;;;;;28.75;55.28;96636.69;5066958;28;20288;-77
2022/08/23 10:04:38;;;;;;;10.67;8.43;;;;;;;29.01;53.69;96628.06;5067773;28;20225;-77
2022/08/23 10:08:00;;;;;;;11.50;9.17;;;;;;;28.98;53.50;96640.78;5065191;28;20201;-76
2022/08/23 10:11:09;;;;;;;10.77;9.53;;;;;;;29.15;52.34;96627.16;5065709;28;20280;-77
2022/08/23 10:14:33;;;;;;;10.97;9.27;;;;;;;29.37;51.38;96624.22;5066820;28;20276;-79
2022/08/23 10:17:46;;;;;;;11.27;8.80;;;;;;;29.62;51.95;96627.25;5068646;28;20227;-76
2022/08/23 10:21:11;;;;;;;11.87;9.30;;;;;;;29.85;51.65;96627.78;5069051;28;20276;-78
2022/08/23 10:24:43;;;;;;;11.53;9.23;;;;;;;29.63;51.25;96618.22;5065057;28;20200;-78
2022/08/23 10:31:44;;;;;;;12.67;9.23;;;;;;;29.66;49.66;96623.16;5066880;28;20663;-79
2022/08/23 10:35:01;;;;;;;12.47;10.43;;;;;;;29.37;50.04;96626.06;5066771;28;20228;-78
2022/08/23 10:37:53;;;;;;;11.90;10.70;;;;;;;29.31;51.56;96627.69;5051740;28;20323;-79
2022/08/23 10:41:20;;;;;;;12.07;9.67;;;;;;;29.64;49.70;96627.88;5048850;28;20293;-79
2022/08/23 10:45:05;;;;;;;14.70;11.70;;;;;;;29.47;49.88;96631.91;5067757;28;20228;-79
2022/08/23 10:48:35;;;;;;;16.27;10.90;;;;;;;29.48;48.67;96631.69;5066729;28;20197;-79
2022/08/23 10:51:58;;;;;;;12.90;11.23;;;;;;;29.54;49.86;96640.75;5067860;28;20200;-77
2022/08/23 10:55:34;;;;;;;13.53;11.57;;;;;;;29.43;49.38;96630.66;5066517;28;20203;-78
2022/08/23 10:58:38;;;;;;;14.00;12.57;;;;;;;29.71;48.42;96634.91;5068596;28;20306;-79
2022/08/23 11:01:45;;;;;;;18.20;13.83;;;;;;;30.13;48.55;96631.16;5067848;28;20205;-79
2022/08/23 11:05:25;;;;;;;16.37;12.93;;;;;;;30.26;47.13;96620.50;5066515;28;20201;-79
2022/08/23 11:09:16;;;;;;;17.77;13.00;;;;;;;30.35;46.43;96622.00;5008495;28;20292;-79
2022/08/23 11:12:40;;;;;;;16.10;14.13;;;;;;;30.61;45.04;96628.38;4976276;28;20259;-79
2022/08/23 11:15:44;;;;;;;14.53;12.10;;;;;;;30.95;44.81;96622.88;5023674;28;20198;-79
2022/08/23 11:18:32;;;;;;;16.10;12.40;;;;;;;30.88;45.46;96627.41;5009096;28;20276;-79
2022/08/23 11:21:32;;;;;;;14.03;12.53;;;;;;;30.96;45.14;96629.88;5010232;28;20206;-79
2022/08/23 11:24:17;;;;;;;15.53;12.77;;;;;;;30.74;45.29;96631.09;5006900;28;20202;-76
2022/08/23 11:27:44;;;;;;;13.30;11.87;;;;;;;30.75;44.33;96611.34;5008821;28;20262;-77
2022/08/23 11:31:03;;;;;;;12.20;10.90;;;;;;;30.75;44.59;96617.50;5008586;28;20292;-79
2022/08/23 11:34:31;;;;;;;14.83;11.70;;;;;;;31.09;43.93;96616.50;5023406;28;20223;-77
2022/08/23 11:37:20;;;;;;;13.90;11.00;;;;;;;31.15;44.25;96612.97;5000638;28;20320;-79
2022/08/23 11:40:37;;;;;;;15.73;11.83;;;;;;;31.10;44.07;96610.91;5065052;28;20228;-75
2022/08/23 11:44:05;;;;;;;15.97;12.97;;;;;;;31.08;44.32;96604.13;5066002;28;20193;-79
2022/08/23 11:46:49;;;;;;;16.70;12.43;;;;;;;31.14;44.90;96600.66;5047630;28;20205;-78
2022/08/23 11:50:43;;;;;;;16.10;13.13;;;;;;;31.05;44.75;96599.22;5064877;28;20205;-79
2022/08/23 11:53:46;;;;;;;14.40;12.10;;;;;;;31.06;45.05;96587.47;5067012;28;20288;-78
2022/08/23 11:57:19;;;;;;;16.10;12.13;;;;;;;30.66;45.96;96585.84;5064912;28;20215;-77
2022/08/23 12:00:12;;;;;;;14.57;11.90;;;;;;;30.06;47.16;96595.59;5065027;28;20208;-79
2022/08/23 12:03:33;;;;;;;14.00;11.03;;;;;;;30.02;47.42;96583.69;5066282;28;20201;-80
2022/08/23 12:07:17;;;;;;;12.57;10.47;;;;;;;30.22;46.06;96573.00;5045217;28;20699;-75
2022/08/23 12:10:42;;;;;;;16.60;10.57;;;;;;;30.47;45.68;96572.25;5071112;28;20236;-79
2022/08/23 12:13:26;;;;;;;10.87;9.67;;;;;;;30.89;45.39;96559.53;5071644;28;20205;-76
2022/08/23 12:16:13;;;;;;;15.23;11.53;;;;;;;31.06;46.07;96560.69;5069476;28;20262;-78
2022/08/23 12:19:47;;;;;;;12.27;11.07;;;;;;;30.45;45.88;96544.09;5070841;28;20207;-80
2022/08/23 12:23:21;;;;;;;11.90;10.60;;;;;;;30.68;46.25;96552.50;5072037;28;20210;-78
2022/08/23 12:26:27;;;;;;;12.80;11.57;;;;;;;30.54;46.27;96551.69;5070044;28;20224;-78
2022/08/23 12:29:28;;;;;;;10.80;9.70;;;;;;;30.69;45.36;96539.94;5069350;28;20200;-78
2022/08/23 12:32:55;;;;;;;12.30;9.90;;;;;;;30.52;45.65;96548.38;5053464;28;20331;-75
2022/08/23 12:36:33;;;;;;;12.63;10.20;;;;;;;30.12;46.54;96540.53;5047957;28;20224;-79
2022/08/23 12:39:58;;;;;;;11.93;10.00;;;;;;;29.94;46.80;96535.78;5051164;28;20681;-78
2022/08/23 12:43:26;;;;;;;12.37;9.83;;;;;;;30.36;45.94;96547.97;5049329;28;20259;-78
2022/08/23 12:46:50;;;;;;;14.03;10.33;;;;;;;30.62;45.44;96536.47;5048721;28;20201;-80
2022/08/23 12:49:53;;;;;;;12.17;9.97;;;;;;;30.94;44.41;96540.97;5049799;28;20200;-78
2022/08/23 12:53:16;;;;;;;10.97;9.30;;;;;;;31.02;43.75;96524.69;5050175;28;20213;-77
2022/08/23 12:56:38;;;;;;;13.23;9.13;;;;;;;31.12;43.43;96522.41;5049447;28;20229;-77
2022/08/23 12:59:52;;;;;;;23.27;10.27;;;;;;;31.47;42.95;96528.31;5048910;28;20194;-78
2022/08/23 13:03:18;;;;;;;10.33;8.30;;;;;;;31.55;43.56;96530.75;5049427;28;20198;-77
2022/08/23 13:06:39;;;;;;;10.73;8.57;;;;;;;31.68;45.01;96538.69;5048023;28;20243;-77
2022/08/23 13:10:04;;;;;;;15.07;9.10;;;;;;;30.99;45.56;96533.16;5049664;28;20228;-80
2022/08/23 13:13:33;;;;;;;8.90;7.47;;;;;;;30.96;44.94;96534.41;5048267;28;20230;-78
2022/08/23 13:16:51;;;;;;;11.70;9.17;;;;;;;30.84;45.85;96538.72;5030914;28;20679;-80
2022/08/23 13:20:00;;;;;;;12.43;8.30;;;;;;;30.43;47.17;96527.44;5048892;28;20200;-78
2022/08/23 13:23:35;;;;;;;17.03;8.63;;;;;;;30.33;47.69;96549.22;5052512;28;20197;-80
2022/08/23 13:27:01;;;;;;;9.40;8.33;;;;;;;30.18;47.99;96551.22;5048233;28;20251;-78
2022/08/23 13:30:11;;;;;;;9.83;7.90;;;;;;;30.15;47.63;96548.16;5046215;28;20202;-77
2022/08/23 13:33:37;;;;;;;10.27;7.60;;;;;;;30.18;47.68;96548.56;5047162;28;20255;-78
2022/08/23 13:36:58;;;;;;;8.33;7.30;;;;;;;30.39;46.32;96515.50;5049724;28;20201;-78
2022/08/23 13:40:24;;;;;;;11.70;7.37;;;;;;;30.74;46.95;96543.66;5047562;28;20194;-76
2022/08/23 13:43:46;;;;;;;10.77;8.30;;;;;;;30.87;45.59;96530.28;5029258;28;20241;-78
2022/08/23 13:47:11;;;;;;;11.97;7.40;;;;;;;31.00;46.37;96550.84;5048182;28;20194;-76
2022/08/23 13:50:39;;;;;;;9.10;8.20;;;;;;;30.71;46.78;96544.06;5049193;28;20275;-75
2022/08/23 13:54:04;;;;;;;11.50;7.43;;;;;;;30.74;46.02;96540.16;5049264;28;20200;-80
2022/08/23 13:57:35;;;;;;;7.60;6.57;;;;;;;30.72;46.25;96543.03;5029139;28;20207;-79
2022/08/23 14:00:39;;;;;;;9.67;7.50;;;;;;;30.63;45.30;96538.09;5043113;28;20200;-77
2022/08/23 14:03:22;;;;;;;8.50;6.63;;;;;;;30.46;45.69;96540.38;5041552;28;20209;-80
2022/08/23 14:05:51;;;;;;;9.37;7.07;;;;;;;30.56;46.22;96537.31;5036829;28;20212;-77
2022/08/23 14:08:19;;;;;;;8.93;7.77;;;;;;;30.68;46.39;96539.16;5047327;28;20221;-76
2022/08/23 14:10:50;;;;;;;11.10;7.03;;;;;;;30.91;45.39;96546.75;5048327;28;20205;-78
2022/08/23 14:13:23;;;;;;;7.00;5.77;;;;;;;30.76;44.55;96543.44;5040861;28;20984;-79
2022/08/23 14:15:51;;;;;;;10.90;7.60;;;;;;;30.86;44.97;96549.22;5027171;28;20206;-75
2022/08/23 14:18:38;;;;;;;9.23;6.93;;;;;;;30.65;45.34;96538.72;5028011;28;20717;-79
2022/08/23 14:21:27;;;;;;;10.37;7.70;;;;;;;30.83;45.27;96538.94;5028869;28;20202;-79
2022/08/23 14:23:55;;;;;;;14.20;7.07;;;;;;;30.92;45.24;96543.03;5041180;28;20213;-78
2022/08/23 14:26:26;;;;;;;8.23;6.60;;;;;;;30.82;45.20;96542.63;5048004;28;20197;-75
2022/08/23 14:29:06;;;;;;;20.23;6.90;;;;;;;31.04;45.04;96539.50;5049413;28;20738;-79
2022/08/23 14:31:41;;;;;;;11.63;6.93;;;;;;;31.16;44.34;96534.34;5048468;28;20186;-79
2022/08/23 14:34:10;;;;;;;9.70;6.93;;;;;;;31.24;44.56;96536.81;5067681;28;20223;-78
2022/08/23 14:36:39;;;;;;;11.90;6.83;;;;;;;31.26;43.96;96532.06;5088538;28;20242;-79
2022/08/23 14:39:08;;;;;;;16.83;7.30;;;;;;;31.41;44.83;96526.47;5086910;28;20195;-80
2022/08/23 14:41:42;;;;;;;7.83;6.90;;;;;;;31.04;45.45;96498.56;5088192;28;20203;-77
2022/08/23 14:44:09;;;;;;;9.13;7.30;;;;;;;31.05;47.08;96519.78;5087062;28;20200;-78
2022/08/23 14:46:38;;;;;;;9.97;7.90;;;;;;;30.97;48.29;96509.31;5070206;28;20196;-76
2022/08/23 14:49:08;;;;;;;9.10;7.13;;;;;;;30.72;49.32;96488.75;5049565;28;20231;-78
2022/08/23 14:51:39;;;;;;;11.47;8.43;;;;;;;30.55;50.43;96488.34;5032546;28;20649;-79
2022/08/23 14:54:18;;;;;;;11.10;7.67;;;;;;;30.35;51.14;96490.22;5069970;28;20257;-77
2022/08/23 14:56:45;;;;;;;7.03;6.33;;;;;;;30.02;50.41;96498.19;5066462;28;20203;-77
2022/08/23 14:59:13;;;;;;;7.93;6.90;;;;;;;29.85;51.67;96501.44;5084265;28;20202;-71
2022/08/23 15:01:43;;;;;;;9.97;7.20;;;;;;;29.59;51.83;96508.31;5068218;28;20337;-75
2022/08/23 15:04:16;;;;;;;8.53;7.00;;;;;;;29.55;52.49;96519.63;5087466;28;20761;-77
2022/08/23 15:06:47;;;;;;;9.13;6.80;;;;;;;29.31;53.28;96526.31;5087655;28;20188;-79
2022/08/23 15:09:35;;;;;;;9.07;6.80;;;;;;;29.43;52.93;96523.91;5070003;28;20290;-77
2022/08/23 15:12:15;;;;;;;10.50;6.93;;;;;;;29.56;52.26;96534.59;5069856;28;20638;-80
2022/08/23 15:15:10;;;;;;;8.30;6.07;;;;;;;29.64;51.97;96527.25;5083503;28;20234;-79
2022/08/23 15:17:53;;;;;;;11.93;6.50;;;;;;;29.90;51.06;96533.72;5051940;28;20707;-80
2022/08/23 15:20:24;;;;;;;8.83;7.27;;;;;;;29.83;51.69;96535.53;5088005;28;20741;-78
2022/08/23 15:22:56;;;;;;;10.27;7.10;;;;;;;29.83;52.02;96523.03;5086015;28;20251;-78
2022/08/23 15:25:29;;;;;;;8.67;7.10;;;;;;;29.83;51.08;96541.72;5073473;28;20205;-80